親子の共演!

LUXURY FLIGHT

03-6423-7371

羽田本店:東京都大田区羽田5-11-1
営業時間:10:00~20:00
定休日:毎週 月曜日
セントレア店:愛知県常滑市セントレア1-1
営業時間:10:00~20:00 年中無休

lv

親子の共演!

STAFF BLOG

2019/05/17 親子の共演!

おはざっすーーーーー

おはおはざっすーーーー

 

えー、全国の読者の皆さま。

 

今朝の東京、仕事してる場合じゃないっス。

 

仕事をするのが勿体無いくらい、気持ちのいい朝です。

 

コーヒー片手に何時間でも日向ぼっこ出来そうです。

 

そんなMETARは…

RJTT 170000Z 07005KT 9999 FEW015 21/15 Q1020 NOSIG RMK 1CU015 A3013

 

てな感じです、THE・春です

 

さて先日、親子の絆で最高のフライトをしてくださったお二人。

 

90分ずつ、合計180分の乗務をしっかりとこなして頂きました

 

img_1394

この、なんとも言えないお二人の雰囲気。

 

親子の信頼が本物のパイロットに引けを取らない写真映えとなってます

 

ちなみにご主人様の制服は自前です。(笑)

 

そんなお二人を、細い目でそっと奥様が見守っておりまして…

 

私、こういう家族になりたいと、切に思いました。

 

う、羨ましい…

 

フライトはタッチ&ゴーだったり、関西方面へのフライト等、思いおもいに楽しんでいただきましたが、

 

容姿の通り、貫禄のあるフライトでスーパーナイスランディング

 

アレ、話が違うなぁ…

 

YS11のシミュレーター、一回しかやった事ない!って仰ってたのに…(笑)

 

それにしても夕焼けが綺麗でしたね

 

またのご来店、心よりお待ち致しております。

 

 

この度はご来店誠に有難うございました。

 

 

「感謝」

TOP